Time;durP1;ratioP1;P1;durP2;ratioP2;P2;SDS_P1;SDS_P2;PMS_P1;PMS_P2;Temp;Humidity;BMP_temperature;BMP_pressure;BME280_temperature;BME280_humidity;BME280_pressure;Samples;Min_cycle;Max_cycle;Signal;HPM_P1;HPM_P2
2022/12/15 00:40:39;;;;;;;0.70;0.70;;;;;;;-10.25;78.41;99185.84;5085359;28;20027;-70
2022/12/15 00:43:04;;;;;;;0.70;0.70;;;;;;;-10.29;78.56;99184.81;5085224;28;20167;-70
2022/12/15 00:48:14;;;;;;;0.73;0.73;;;;;;;-10.32;78.68;99185.50;5085297;28;20027;-69
2022/12/15 00:50:52;;;;;;;0.70;0.70;;;;;;;-10.29;78.43;99187.31;5085169;28;20040;-64
2022/12/15 01:20:54;;;;;;;0.75;0.75;;;;;;;-10.33;79.49;99208.00;5085945;28;20035;-69
2022/12/15 01:23:20;;;;;;;0.70;0.70;;;;;;;-10.32;79.57;99215.63;5089095;28;20040;-70
2022/12/15 01:25:45;;;;;;;0.70;0.70;;;;;;;-10.33;79.51;99218.03;5089075;28;20047;-69
2022/12/15 01:28:11;;;;;;;0.80;0.80;;;;;;;-10.35;79.69;99222.97;5087423;28;20020;-69
2022/12/15 01:30:36;;;;;;;0.80;0.80;;;;;;;-10.36;79.80;99220.38;5089080;28;20035;-69
2022/12/15 01:33:01;;;;;;;0.60;0.60;;;;;;;-10.35;79.52;99219.63;5088679;28;20030;-71
2022/12/15 01:35:27;;;;;;;0.75;0.75;;;;;;;-10.36;79.41;99225.41;5088769;28;20028;-69
2022/12/15 01:37:52;;;;;;;0.70;0.70;;;;;;;-10.43;79.79;99221.66;5088747;28;20028;-69
2022/12/15 01:43:10;;;;;;;0.60;0.60;;;;;;;-10.43;79.74;99229.19;5088679;28;20487;-69
2022/12/15 01:45:46;;;;;;;0.70;0.70;;;;;;;-10.44;79.83;99224.97;5088269;28;20036;-69
2022/12/15 01:48:19;;;;;;;0.68;0.68;;;;;;;-10.46;79.64;99227.38;5088561;28;20024;-69
2022/12/15 01:50:56;;;;;;;0.60;0.60;;;;;;;-10.45;79.75;99223.25;5088341;28;20052;-69
2022/12/15 01:53:22;;;;;;;0.60;0.60;;;;;;;-10.47;79.95;99214.78;5087135;28;20028;-69
2022/12/15 01:55:48;;;;;;;0.70;0.70;;;;;;;-10.49;80.08;99223.88;5088350;28;20460;-69
2022/12/15 01:58:15;;;;;;;0.70;0.70;;;;;;;-10.46;79.83;99229.91;5087836;28;20024;-69
2022/12/15 02:00:41;;;;;;;0.65;0.65;;;;;;;-10.50;79.90;99223.03;5088463;28;20036;-69
2022/12/15 02:03:08;;;;;;;0.80;0.80;;;;;;;-10.45;79.88;99231.63;5088078;28;20031;-69
2022/12/15 02:05:34;;;;;;;0.70;0.70;;;;;;;-10.51;80.00;99220.41;5087983;28;20127;-69
2022/12/15 02:08:02;;;;;;;0.80;0.80;;;;;;;-10.42;79.85;99223.41;5088372;28;20034;-69
2022/12/15 02:10:39;;;;;;;0.70;0.70;;;;;;;-10.50;79.86;99215.50;5088095;28;20036;-69
2022/12/15 02:13:07;;;;;;;0.60;0.60;;;;;;;-10.41;79.66;99224.28;5088152;28;20130;-69
2022/12/15 02:15:50;;;;;;;0.77;0.77;;;;;;;-10.42;79.70;99225.94;5086764;28;20048;-69
2022/12/15 02:18:45;;;;;;;0.65;0.65;;;;;;;-10.41;79.83;99219.28;5087967;28;20028;-69
2022/12/15 02:21:30;;;;;;;0.70;0.70;;;;;;;-10.41;79.68;99221.78;5087659;28;20052;-68
2022/12/15 02:24:25;;;;;;;0.70;0.70;;;;;;;-10.43;79.56;99224.19;5087746;28;20392;-68
2022/12/15 02:27:10;;;;;;;0.63;0.63;;;;;;;-10.47;79.57;99225.69;5087941;28;20039;-68
2022/12/15 02:30:03;;;;;;;0.70;0.70;;;;;;;-10.47;79.87;99232.34;5087846;28;20119;-68
2022/12/15 02:32:52;;;;;;;0.70;0.70;;;;;;;-10.53;79.82;99225.34;5087511;28;20036;-68
2022/12/15 02:35:38;;;;;;;0.77;0.77;;;;;;;-10.53;79.90;99227.88;5087030;28;20385;-67
2022/12/15 02:38:04;;;;;;;0.70;0.70;;;;;;;-10.53;79.93;99235.41;5087773;28;20028;-68
2022/12/15 02:40:29;;;;;;;0.60;0.60;;;;;;;-10.54;79.97;99238.66;5087576;28;20036;-69
2022/12/15 02:42:58;;;;;;;0.70;0.70;;;;;;;-10.53;79.92;99232.88;5087314;28;20038;-69
2022/12/15 02:45:51;;;;;;;0.70;0.70;;;;;;;-10.57;80.10;99233.47;5087478;28;20044;-69
2022/12/15 02:48:22;;;;;;;0.60;0.60;;;;;;;-10.52;79.87;99244.63;5086170;28;20032;-69
2022/12/15 02:50:59;;;;;;;0.80;0.80;;;;;;;-10.52;79.90;99242.13;5087323;28;20039;-69
2022/12/15 02:54:00;;;;;;;1.90;1.75;;;;;;;-10.50;79.96;99248.09;5087367;28;20044;-68
2022/12/15 02:56:51;;;;;;;0.70;0.70;;;;;;;-10.49;79.89;99246.44;5087299;28;20028;-69
2022/12/15 02:59:36;;;;;;;0.88;0.88;;;;;;;-10.48;79.97;99250.72;5087607;28;20017;-68
2022/12/15 03:02:05;;;;;;;0.70;0.70;;;;;;;-10.50;79.78;99245.59;5087189;28;20043;-69
2022/12/15 03:04:32;;;;;;;0.80;0.80;;;;;;;-10.48;79.70;99249.03;5086997;28;20107;-69
2022/12/15 03:07:02;;;;;;;0.70;0.70;;;;;;;-10.51;79.64;99255.56;5086890;28;20018;-68
2022/12/15 03:09:29;;;;;;;0.70;0.70;;;;;;;-10.55;79.56;99252.00;5087160;28;20025;-69
2022/12/15 03:11:54;;;;;;;0.60;0.60;;;;;;;-10.57;79.39;99253.53;5086939;28;20043;-69
2022/12/15 03:14:20;;;;;;;0.70;0.70;;;;;;;-10.54;79.23;99257.88;5086914;28;20111;-69
2022/12/15 03:16:45;;;;;;;0.70;0.70;;;;;;;-10.57;79.34;99258.56;5086956;28;20028;-69
2022/12/15 03:19:11;;;;;;;0.77;0.77;;;;;;;-10.61;79.27;99260.03;5086815;28;20035;-68
2022/12/15 03:21:36;;;;;;;0.60;0.60;;;;;;;-10.66;79.40;99251.38;5085139;28;20079;-68
2022/12/15 03:24:02;;;;;;;0.70;0.70;;;;;;;-10.66;79.46;99256.41;5086718;28;20054;-69
2022/12/15 03:26:27;;;;;;;0.70;0.70;;;;;;;-10.68;79.65;99267.97;5086887;28;20387;-68
2022/12/15 03:28:53;;;;;;;0.80;0.80;;;;;;;-10.63;79.40;99265.72;5086539;28;20028;-70
2022/12/15 03:31:18;;;;;;;0.70;0.70;;;;;;;-10.59;79.49;99267.66;5086487;28;20460;-68
2022/12/15 03:33:43;;;;;;;0.60;0.60;;;;;;;-10.62;79.62;99268.31;5086462;28;20031;-68
2022/12/15 03:36:09;;;;;;;0.70;0.70;;;;;;;-10.59;79.47;99270.16;5085924;28;20028;-68
2022/12/15 03:38:34;;;;;;;0.80;0.80;;;;;;;-10.59;79.65;99275.19;5086595;28;20035;-68
2022/12/15 03:41:00;;;;;;;0.80;0.80;;;;;;;-10.60;79.81;99274.31;5086146;28;20103;-68
2022/12/15 03:43:25;;;;;;;0.60;0.60;;;;;;;-10.56;79.83;99269.47;5085703;28;20369;-68
2022/12/15 03:45:50;;;;;;;0.70;0.70;;;;;;;-10.50;79.62;99275.72;5084865;28;20032;-68
2022/12/15 03:48:16;;;;;;;0.63;0.63;;;;;;;-10.46;79.77;99275.06;5086217;28;20032;-68
2022/12/15 03:50:41;;;;;;;0.70;0.70;;;;;;;-10.46;79.65;99271.72;5084929;28;20104;-68
2022/12/15 03:53:07;;;;;;;0.70;0.70;;;;;;;-10.48;79.59;99278.31;5086131;28;20032;-68
2022/12/15 03:55:34;;;;;;;0.70;0.70;;;;;;;-10.47;79.50;99275.88;5086191;28;20032;-68
2022/12/15 03:57:59;;;;;;;0.63;0.63;;;;;;;-10.50;79.42;99285.75;5085910;28;20029;-69
2022/12/15 04:00:26;;;;;;;0.70;0.70;;;;;;;-10.59;79.32;99277.69;5086128;28;20130;-68
2022/12/15 04:02:52;;;;;;;0.70;0.70;;;;;;;-10.55;79.52;99284.59;5085834;28;20028;-68
2022/12/15 04:05:29;;;;;;;0.70;0.70;;;;;;;-10.59;79.53;99286.06;5085706;28;20029;-69
2022/12/15 04:07:57;;;;;;;0.80;0.80;;;;;;;-10.58;79.40;99287.81;5086027;28;20036;-69
2022/12/15 04:10:23;;;;;;;0.65;0.65;;;;;;;-10.62;79.27;99285.03;5084239;28;20027;-68
2022/12/15 04:13:02;;;;;;;3.47;3.30;;;;;;;-10.70;79.34;99282.94;5084505;28;20556;-69
2022/12/15 04:15:28;;;;;;;0.60;0.60;;;;;;;-10.72;79.48;99288.66;5085671;28;20021;-68
2022/12/15 04:17:54;;;;;;;0.80;0.80;;;;;;;-10.75;79.52;99294.31;5085592;28;20020;-69
2022/12/15 04:20:20;;;;;;;0.63;0.63;;;;;;;-10.81;79.35;99286.44;5085548;28;20084;-67
2022/12/15 04:22:47;;;;;;;0.75;0.75;;;;;;;-10.80;79.54;99288.19;5084242;28;20084;-68
2022/12/15 05:31:51;;;;;;;0.80;0.80;;;;;;;-10.64;79.01;99340.13;5084776;28;20125;-69
2022/12/15 05:34:21;;;;;;;0.70;0.70;;;;;;;-10.67;79.09;99344.09;5084859;28;20025;-69
2022/12/15 05:36:47;;;;;;;0.60;0.60;;;;;;;-10.70;79.11;99342.25;5084609;28;20024;-68
2022/12/15 05:39:13;;;;;;;0.70;0.70;;;;;;;-10.75;79.15;99333.63;5084705;28;20028;-71
2022/12/15 05:41:38;;;;;;;0.70;0.70;;;;;;;-10.71;79.14;99335.50;5084549;28;20166;-68
2022/12/15 05:44:04;;;;;;;0.80;0.80;;;;;;;-10.70;79.42;99338.13;5084778;28;20076;-69
2022/12/15 05:46:29;;;;;;;0.80;0.80;;;;;;;-10.63;79.32;99348.50;5083358;28;20036;-67
2022/12/15 05:48:55;;;;;;;0.68;0.68;;;;;;;-10.63;79.29;99356.03;5084640;28;20032;-69
2022/12/15 05:51:21;;;;;;;0.70;0.70;;;;;;;-10.62;79.35;99352.78;5083128;28;20023;-67
2022/12/15 05:53:46;;;;;;;0.80;0.80;;;;;;;-10.65;79.33;99345.06;5084547;28;20025;-68
2022/12/15 05:56:13;;;;;;;0.70;0.70;;;;;;;-10.63;79.43;99356.03;5083285;28;20031;-67
2022/12/15 05:58:40;;;;;;;0.70;0.70;;;;;;;-10.68;79.53;99355.75;5084446;28;20031;-68
2022/12/15 06:01:09;;;;;;;0.70;0.70;;;;;;;-10.68;79.51;99363.28;5083287;28;20036;-68
2022/12/15 06:03:34;;;;;;;0.50;0.50;;;;;;;-10.68;79.47;99367.44;5084177;28;20116;-69
2022/12/15 06:06:01;;;;;;;0.63;0.63;;;;;;;-10.68;79.65;99364.91;5084422;28;20024;-71
2022/12/15 06:08:32;;;;;;;0.70;0.70;;;;;;;-10.71;79.57;99358.09;5088269;28;20024;-69
2022/12/15 06:10:57;;;;;;;0.70;0.70;;;;;;;-10.75;79.66;99356.19;5088059;28;20044;-69
2022/12/15 06:13:24;;;;;;;0.70;0.70;;;;;;;-10.73;79.26;99367.16;5086439;28;20264;-67
2022/12/15 06:15:55;;;;;;;0.70;0.70;;;;;;;-10.74;79.58;99371.31;5086578;28;20031;-67
2022/12/15 06:18:21;;;;;;;;;;;;;;;-10.71;79.77;99369.00;5086709;28;20028;-66
2022/12/15 06:20:46;;;;;;;0.60;0.60;;;;;;;-10.73;79.61;99368.03;5086100;28;19962;-68
2022/12/15 06:23:11;;;;;;;0.70;0.70;;;;;;;-10.74;79.51;99370.44;5086313;28;20070;-64
2022/12/15 06:25:37;;;;;;;0.70;0.70;;;;;;;-10.79;79.54;99361.78;5086400;28;20050;-65
2022/12/15 06:28:02;;;;;;;0.70;0.70;;;;;;;-10.74;79.66;99371.31;5086623;28;20028;-65
2022/12/15 06:30:28;;;;;;;0.60;0.60;;;;;;;-10.68;79.66;99379.97;5087042;28;20369;-66
2022/12/15 06:32:53;;;;;;;0.68;0.68;;;;;;;-10.64;79.80;99382.78;5086917;28;20032;-66
2022/12/15 06:35:20;;;;;;;0.70;0.70;;;;;;;-10.58;79.90;99380.63;5087005;28;20115;-66
2022/12/15 06:37:45;;;;;;;0.70;0.70;;;;;;;-10.61;79.75;99372.94;5086825;28;20032;-67
2022/12/15 06:40:11;;;;;;;0.70;0.70;;;;;;;-10.51;79.79;99388.53;5087207;28;20033;-65
2022/12/15 06:42:36;;;;;;;0.70;0.70;;;;;;;-10.57;79.76;99378.97;5086950;28;20054;-67
2022/12/15 06:45:02;;;;;;;0.70;0.70;;;;;;;-10.51;79.94;99391.03;5087008;28;20147;-66
2022/12/15 06:47:28;;;;;;;1.60;1.60;;;;;;;-10.45;79.86;99401.41;5086815;28;20078;-67
2022/12/15 06:49:54;;;;;;;0.70;0.70;;;;;;;-10.42;79.57;99403.22;5086336;28;20420;-66
2022/12/15 06:52:20;;;;;;;0.60;0.60;;;;;;;-10.41;79.59;99403.31;5085937;28;20028;-67
2022/12/15 06:54:45;;;;;;;0.68;0.68;;;;;;;-10.39;79.51;99411.81;5086704;28;20432;-68
2022/12/15 06:57:10;;;;;;;0.68;0.68;;;;;;;-10.41;79.56;99412.50;5086768;28;20462;-67
2022/12/15 06:59:36;;;;;;;0.80;0.80;;;;;;;-10.47;79.30;99408.00;5086773;28;20028;-67
2022/12/15 07:02:01;;;;;;;0.70;0.70;;;;;;;-10.38;79.40;99417.69;5086795;28;20047;-67
2022/12/15 07:04:27;;;;;;;0.70;0.70;;;;;;;-10.34;79.36;99422.13;5086632;28;20036;-67
2022/12/15 07:06:52;;;;;;;0.60;0.60;;;;;;;-10.33;79.16;99423.84;5086296;28;20036;-67
2022/12/15 07:09:17;;;;;;;0.70;0.70;;;;;;;-10.35;79.15;99430.44;5086729;28;20024;-67
2022/12/15 07:11:45;;;;;;;0.70;0.70;;;;;;;-10.37;78.87;99427.84;5086216;28;20032;-68
2022/12/15 07:14:10;;;;;;;0.70;0.70;;;;;;;-10.46;78.75;99427.28;5086345;28;20020;-67
2022/12/15 07:16:36;;;;;;;0.73;0.73;;;;;;;-10.52;78.76;99436.97;5086475;28;20028;-67
2022/12/15 07:19:01;;;;;;;0.80;0.80;;;;;;;-10.50;78.88;99438.81;5085624;28;20055;-67
2022/12/15 07:21:26;;;;;;;0.65;0.65;;;;;;;-10.50;78.57;99450.47;5086091;28;20044;-67
2022/12/15 07:23:52;;;;;;;0.70;0.70;;;;;;;-10.53;78.93;99450.28;5086255;28;20119;-67
2022/12/15 07:26:17;;;;;;;0.70;0.70;;;;;;;-10.50;79.10;99452.97;5086045;28;20037;-67
2022/12/15 07:28:43;;;;;;;0.70;0.70;;;;;;;-10.50;78.94;99456.38;5084770;28;20027;-68
2022/12/15 07:31:10;;;;;;;0.70;0.70;;;;;;;-10.48;79.03;99469.84;5086182;28;20460;-67
2022/12/15 07:33:36;;;;;;;0.68;0.68;;;;;;;-10.43;79.18;99474.28;5084837;28;20032;-67
2022/12/15 07:36:03;;;;;;;0.65;0.65;;;;;;;-10.46;79.08;99475.81;5085790;28;20043;-67
2022/12/15 07:38:29;;;;;;;0.80;0.80;;;;;;;-10.37;79.10;99482.16;5086174;28;20039;-67
2022/12/15 07:40:59;;;;;;;0.70;0.70;;;;;;;-10.36;79.04;99473.84;5084514;28;20032;-67
2022/12/15 07:43:25;;;;;;;0.80;0.80;;;;;;;-10.38;78.88;99477.94;5084355;28;20032;-68
2022/12/15 07:45:54;;;;;;;0.75;0.75;;;;;;;-10.39;78.92;99479.56;5085904;28;20032;-68
2022/12/15 07:48:19;;;;;;;0.80;0.80;;;;;;;-10.37;79.00;99482.16;5085386;28;20033;-68
2022/12/15 07:50:45;;;;;;;0.60;0.60;;;;;;;-10.35;78.94;99495.69;5085581;28;20028;-67
2022/12/15 07:53:11;;;;;;;0.50;0.50;;;;;;;-10.33;78.98;99489.97;5084655;28;20029;-68
2022/12/15 07:55:36;;;;;;;0.80;0.80;;;;;;;-10.34;78.99;99492.41;5084505;28;20357;-68
2022/12/15 07:58:02;;;;;;;0.80;0.80;;;;;;;-10.33;78.89;99492.50;5085458;28;20122;-67
2022/12/15 08:00:27;;;;;;;0.70;0.70;;;;;;;-10.21;78.89;99501.53;5085682;28;20028;-68
2022/12/15 08:02:53;;;;;;;0.70;0.70;;;;;;;-10.19;78.80;99504.97;5085366;28;20381;-68
2022/12/15 08:05:18;;;;;;;0.70;0.70;;;;;;;-10.12;78.73;99504.59;5085475;28;20029;-67
2022/12/15 08:07:43;;;;;;;0.70;0.70;;;;;;;-9.81;79.09;99513.09;5085536;28;20020;-68
2022/12/15 08:10:09;;;;;;;0.80;0.80;;;;;;;-9.41;79.28;99516.19;5085628;28;20067;-68
2022/12/15 08:12:34;;;;;;;0.70;0.70;;;;;;;-9.13;78.98;99510.19;5085506;28;20035;-68
2022/12/15 08:15:00;;;;;;;0.80;0.80;;;;;;;-8.80;78.47;99522.91;5085320;28;20426;-69
2022/12/15 08:17:25;;;;;;;0.60;0.60;;;;;;;-8.67;77.94;99518.59;5085508;28;20036;-69
2022/12/15 08:19:51;;;;;;;0.70;0.70;;;;;;;-8.58;77.53;99526.63;5084877;28;20024;-69
2022/12/15 08:22:16;;;;;;;0.75;0.75;;;;;;;-8.44;77.82;99521.44;5085053;28;20083;-69
2022/12/15 08:24:42;;;;;;;0.70;0.70;;;;;;;-8.31;76.87;99526.34;5083448;28;20054;-69
2022/12/15 08:27:07;;;;;;;0.70;0.70;;;;;;;-8.24;76.62;99523.34;5084990;28;20029;-69
2022/12/15 08:29:33;;;;;;;0.60;0.60;;;;;;;-8.13;76.53;99534.00;5084684;28;20347;-69
2022/12/15 08:32:00;;;;;;;0.70;0.70;;;;;;;-7.99;76.80;99526.31;5085024;28;20028;-70
2022/12/15 08:34:25;;;;;;;0.70;0.70;;;;;;;-7.84;76.65;99517.00;5084799;28;20490;-68
2022/12/15 08:36:50;;;;;;;0.70;0.70;;;;;;;-7.59;76.58;99545.97;5084605;28;20593;-70
2022/12/15 08:39:16;;;;;;;0.60;0.60;;;;;;;-7.37;76.57;99536.13;5085017;28;20119;-70
2022/12/15 08:41:42;;;;;;;0.60;0.60;;;;;;;-7.06;76.41;99539.28;5084614;28;20063;-69
2022/12/15 08:44:07;;;;;;;0.70;0.70;;;;;;;-6.56;75.91;99541.63;5084935;28;20036;-69
2022/12/15 08:46:33;;;;;;;0.68;0.68;;;;;;;-6.23;75.12;99542.31;5084946;28;20032;-70
2022/12/15 08:49:00;;;;;;;0.63;0.63;;;;;;;-6.03;74.27;99532.22;5083392;28;20048;-69
2022/12/15 08:51:28;;;;;;;0.80;0.80;;;;;;;-5.89;73.75;99550.50;5083287;28;20377;-70
2022/12/15 08:53:55;;;;;;;0.70;0.70;;;;;;;-5.57;73.72;99545.13;5083613;28;20026;-71
2022/12/15 08:56:23;;;;;;;0.68;0.68;;;;;;;-5.07;74.33;99546.31;5083373;28;20522;-70
2022/12/15 08:58:49;;;;;;;0.70;0.70;;;;;;;-4.32;73.52;99539.09;5084500;28;20033;-69
2022/12/15 09:01:19;;;;;;;0.70;0.70;;;;;;;-3.60;73.07;99542.53;5084788;28;20025;-70
2022/12/15 09:03:45;;;;;;;0.70;0.70;;;;;;;-3.03;72.33;99551.22;5084688;28;20031;-69
2022/12/15 09:06:14;;;;;;;0.60;0.60;;;;;;;-2.84;70.08;99550.97;5083089;28;20112;-69
2022/12/15 09:08:40;;;;;;;0.60;0.60;;;;;;;-2.61;68.41;99559.28;5084797;28;20414;-69
2022/12/15 09:11:06;;;;;;;0.60;0.60;;;;;;;-2.47;66.88;99566.47;5084136;28;20035;-69
2022/12/15 09:13:32;;;;;;;0.50;0.50;;;;;;;-2.00;68.10;99559.41;5084510;28;20020;-69
2022/12/15 09:16:04;;;;;;;0.50;0.50;;;;;;;-1.84;67.60;99564.97;5083472;28;20016;-71
2022/12/15 09:18:29;;;;;;;;;;;;;;;-1.75;68.45;99565.22;5085126;28;20456;-69
2022/12/15 09:20:55;;;;;;;0.60;0.60;;;;;;;-2.08;69.04;99557.47;5082883;28;19939;-68
2022/12/15 09:23:21;;;;;;;0.60;0.60;;;;;;;-2.57;69.42;99560.25;5083035;28;20055;-68
2022/12/15 09:25:46;;;;;;;0.70;0.70;;;;;;;-3.11;69.17;99566.19;5084584;28;20502;-73
2022/12/15 09:28:14;;;;;;;0.60;0.60;;;;;;;-3.78;69.24;99563.03;5084410;28;20145;-70
2022/12/15 09:30:40;;;;;;;0.60;0.60;;;;;;;-4.33;69.33;99585.53;5084739;28;20050;-68
2022/12/15 09:33:05;;;;;;;0.70;0.70;;;;;;;-4.76;70.10;99598.22;5084488;28;20044;-68
2022/12/15 09:35:30;;;;;;;0.60;0.60;;;;;;;-5.01;71.07;99592.13;5084629;28;20025;-69
2022/12/15 09:37:56;;;;;;;0.70;0.70;;;;;;;-5.15;71.97;99591.56;5083889;28;20029;-68
2022/12/15 09:40:23;;;;;;;0.60;0.60;;;;;;;-5.09;72.61;99586.75;5084387;28;20039;-69
2022/12/15 09:42:54;;;;;;;0.63;0.63;;;;;;;-4.69;72.65;99595.13;5086827;28;20021;-69
2022/12/15 09:45:24;;;;;;;0.82;0.82;;;;;;;-4.43;71.91;99595.31;5086531;28;20092;-69
2022/12/15 09:48:02;;;;;;;0.60;0.60;;;;;;;-3.57;72.38;99582.34;5086584;28;20119;-69
2022/12/15 09:50:33;;;;;;;0.60;0.60;;;;;;;-2.37;72.83;99599.00;5088033;28;20041;-69
2022/12/15 09:52:59;;;;;;;0.60;0.60;;;;;;;-1.00;72.64;99596.88;5086766;28;20025;-71
2022/12/15 09:55:27;;;;;;;0.52;0.52;;;;;;;-0.01;70.97;99595.78;5088093;28;20025;-70
2022/12/15 09:57:55;;;;;;;0.70;0.70;;;;;;;0.27;68.84;99597.19;5086768;28;20038;-70
2022/12/15 10:00:24;;;;;;;1.17;1.17;;;;;;;-0.12;68.09;99599.78;5088177;28;20082;-70
2022/12/15 10:03:20;;;;;;;0.50;0.50;;;;;;;-0.44;68.21;99602.47;5087782;28;20017;-70
2022/12/15 10:06:08;;;;;;;0.60;0.60;;;;;;;-0.11;68.59;99603.22;5087954;28;20050;-69
2022/12/15 10:08:39;;;;;;;0.50;0.50;;;;;;;0.47;67.65;99597.59;5088066;28;20031;-70
2022/12/15 10:11:43;;;;;;;0.70;0.70;;;;;;;0.73;66.21;99603.22;5087529;28;20021;-71
2022/12/15 10:14:22;;;;;;;3.53;3.25;;;;;;;0.71;65.37;99604.88;5086377;28;20044;-69
2022/12/15 10:17:09;;;;;;;0.60;0.60;;;;;;;0.12;65.36;99598.59;5087894;28;20103;-69
2022/12/15 10:19:37;;;;;;;0.50;0.50;;;;;;;-0.59;66.19;99606.38;5087823;28;20032;-69
2022/12/15 10:22:02;;;;;;;0.57;0.57;;;;;;;-1.19;66.69;99609.13;5086092;28;20096;-69
2022/12/15 10:24:30;;;;;;;0.60;0.60;;;;;;;-1.63;67.02;99617.28;5087875;28;20029;-70
2022/12/15 10:27:04;;;;;;;0.98;0.98;;;;;;;-2.10;67.77;99613.38;5087371;28;20021;-67
2022/12/15 10:30:07;;;;;;;0.60;0.60;;;;;;;-1.91;70.60;99612.25;5087820;28;20020;-69
2022/12/15 10:32:45;;;;;;;0.60;0.60;;;;;;;-1.61;71.89;99605.44;5087015;28;20024;-70
2022/12/15 10:35:34;;;;;;;0.60;0.60;;;;;;;-1.55;73.11;99605.63;5086412;28;20029;-70
2022/12/15 10:38:02;;;;;;;0.50;0.50;;;;;;;-1.35;73.69;99607.00;5087003;28;20020;-70
2022/12/15 10:40:50;;;;;;;0.60;0.60;;;;;;;-1.39;73.67;99606.91;5085829;28;20044;-68
2022/12/15 10:43:25;;;;;;;0.50;0.50;;;;;;;-1.57;73.66;99614.91;5087147;28;20025;-69
2022/12/15 10:46:00;;;;;;;0.57;0.57;;;;;;;-1.75;73.60;99612.69;5087060;28;20048;-70
2022/12/15 10:48:25;;;;;;;0.57;0.57;;;;;;;-1.98;73.64;99606.94;5085867;28;20115;-69
2022/12/15 10:50:51;;;;;;;0.90;0.90;;;;;;;-2.19;73.52;99616.50;5086956;28;20029;-69
2022/12/15 10:53:40;;;;;;;0.60;0.60;;;;;;;-2.49;73.56;99623.22;5087052;28;20046;-70
2022/12/15 10:56:07;;;;;;;0.70;0.70;;;;;;;-2.79;73.74;99608.72;5087200;28;20114;-69
2022/12/15 10:58:49;;;;;;;0.60;0.60;;;;;;;-3.07;73.50;99620.50;5087084;28;20020;-70
2022/12/15 11:01:19;;;;;;;0.68;0.68;;;;;;;-3.34;73.75;99621.25;5085468;28;20103;-68
2022/12/15 11:03:45;;;;;;;0.60;0.60;;;;;;;-3.54;73.90;99631.56;5086495;28;20241;-68
2022/12/15 11:06:22;;;;;;;0.60;0.60;;;;;;;-3.63;74.36;99628.69;5086626;28;20381;-70
2022/12/15 11:08:52;;;;;;;0.70;0.70;;;;;;;-3.73;74.31;99635.09;5086681;28;20047;-70
2022/12/15 11:14:22;;;;;;;0.60;0.60;;;;;;;-3.66;74.38;99634.50;5086377;28;20028;-69
2022/12/15 11:16:52;;;;;;;0.80;0.80;;;;;;;-3.65;74.67;99643.84;5086177;28;20028;-70
2022/12/15 11:20:04;;;;;;;0.65;0.65;;;;;;;-3.72;74.07;99643.56;5086301;28;20032;-68
2022/12/15 11:22:42;;;;;;;0.60;0.60;;;;;;;-3.94;73.83;99656.31;5075776;28;20100;-70
2022/12/15 11:25:36;;;;;;;0.70;0.70;;;;;;;-4.15;74.63;99648.72;5086283;28;20031;-68
2022/12/15 11:28:08;;;;;;;0.60;0.60;;;;;;;-4.01;74.81;99664.50;5086213;28;20025;-68
2022/12/15 11:30:41;;;;;;;1.45;1.40;;;;;;;-4.21;74.50;99669.63;5086397;28;20074;-68
2022/12/15 11:33:09;;;;;;;0.63;0.63;;;;;;;-4.31;74.88;99677.69;5085912;28;20029;-69
2022/12/15 11:35:53;;;;;;;0.68;0.68;;;;;;;-4.40;75.24;99675.63;5086132;28;20020;-69
2022/12/15 11:38:30;;;;;;;1.08;0.82;;;;;;;-4.50;75.50;99665.13;5086539;28;20025;-69
2022/12/15 11:41:03;;;;;;;0.70;0.70;;;;;;;-4.54;75.96;99662.41;5086210;28;20080;-69
2022/12/15 11:43:45;;;;;;;0.60;0.60;;;;;;;-4.38;75.91;99679.09;5086227;28;20099;-69
2022/12/15 11:46:17;;;;;;;0.70;0.70;;;;;;;-4.37;76.43;99676.63;5085843;28;20024;-69
2022/12/15 11:48:57;;;;;;;;;;;;;;;-4.32;76.26;99681.88;5086397;28;20029;-68
2022/12/15 11:51:35;;;;;;;0.70;0.70;;;;;;;-4.50;75.72;99677.81;5085756;28;20318;-69
2022/12/15 11:54:25;;;;;;;0.60;0.60;;;;;;;-4.62;76.01;99675.63;5085712;28;20052;-69
2022/12/15 11:57:22;;;;;;;0.52;0.52;;;;;;;-4.68;75.82;99687.19;5085596;28;20024;-69
2022/12/15 12:00:05;;;;;;;0.68;0.68;;;;;;;-4.81;75.83;99689.22;5085530;28;20147;-69
2022/12/15 12:02:58;;;;;;;0.60;0.60;;;;;;;-4.97;75.75;99687.69;5085530;28;20052;-67
2022/12/15 12:05:49;;;;;;;0.70;0.70;;;;;;;-5.01;75.89;99699.34;5085089;28;20024;-68
2022/12/15 12:08:38;;;;;;;0.70;0.70;;;;;;;-5.03;76.23;99695.88;5083621;28;20472;-70
2022/12/15 12:11:26;;;;;;;0.63;0.63;;;;;;;-5.00;76.22;99701.06;5084816;28;20052;-69
2022/12/15 12:14:20;;;;;;;0.70;0.70;;;;;;;-5.02;76.27;99710.28;5085068;28;20028;-69
2022/12/15 12:16:52;;;;;;;0.70;0.70;;;;;;;-5.05;76.04;99712.69;5083671;28;20031;-69
2022/12/15 12:19:20;;;;;;;0.77;0.77;;;;;;;-5.18;76.06;99700.25;5083525;28;20032;-68
2022/12/15 12:21:49;;;;;;;0.60;0.60;;;;;;;-5.17;76.09;99702.00;5083333;28;20048;-68
2022/12/15 12:24:30;;;;;;;0.70;0.70;;;;;;;-5.20;76.15;99707.78;5085264;28;20024;-68
2022/12/15 12:27:12;;;;;;;1.00;1.00;;;;;;;-5.28;76.22;99709.97;5085000;28;20021;-68
2022/12/15 12:29:48;;;;;;;0.70;0.70;;;;;;;-5.33;76.38;99711.44;5084881;28;20029;-68
2022/12/15 12:32:29;;;;;;;0.70;0.70;;;;;;;-5.35;76.34;99708.84;5084668;28;20028;-68
2022/12/15 12:35:07;;;;;;;0.70;0.70;;;;;;;-5.37;76.61;99707.06;5084878;28;20051;-68
2022/12/15 12:37:42;;;;;;;0.70;0.70;;;;;;;-5.39;76.21;99701.03;5066789;28;20030;-68
2022/12/15 12:40:21;;;;;;;0.60;0.60;;;;;;;-5.36;76.83;99701.19;5084950;28;20107;-68
2022/12/15 12:42:55;;;;;;;0.70;0.70;;;;;;;-5.30;76.58;99713.25;5085281;28;20029;-68
2022/12/15 12:45:53;;;;;;;0.70;0.70;;;;;;;-5.23;76.74;99718.66;5084863;28;20021;-69
2022/12/15 12:48:45;;;;;;;0.60;0.60;;;;;;;-5.29;76.45;99728.50;5084456;28;20044;-67
2022/12/15 12:51:26;;;;;;;0.80;0.80;;;;;;;-5.42;76.04;99727.09;5084584;28;20025;-69
2022/12/15 12:53:51;;;;;;;0.70;0.70;;;;;;;-5.56;76.24;99725.59;5084951;28;20032;-69
2022/12/15 12:56:40;;;;;;;0.77;0.77;;;;;;;-5.55;76.18;99737.44;5084630;28;20388;-70
2022/12/15 12:59:28;;;;;;;0.63;0.63;;;;;;;-5.64;76.12;99731.13;5083366;28;20028;-68
2022/12/15 13:01:54;;;;;;;0.70;0.70;;;;;;;-5.76;76.06;99726.41;5084689;28;20080;-68
2022/12/15 13:04:29;;;;;;;0.70;0.70;;;;;;;-5.77;76.33;99736.44;5066444;28;20051;-68
2022/12/15 13:06:58;;;;;;;0.60;0.60;;;;;;;-5.80;76.29;99734.66;5084579;28;20027;-68
2022/12/15 13:09:40;;;;;;;0.80;0.80;;;;;;;-5.81;76.61;99727.00;5083415;28;20032;-68
2022/12/15 13:12:32;;;;;;;0.85;0.85;;;;;;;-5.76;76.39;99745.75;5084597;28;20056;-68
2022/12/15 13:14:58;;;;;;;1.00;1.00;;;;;;;-5.83;76.37;99739.53;5084617;28;20029;-68
2022/12/15 13:17:30;;;;;;;0.60;0.60;;;;;;;-5.85;76.19;99731.03;5086910;28;20040;-68
2022/12/15 13:19:55;;;;;;;0.70;0.70;;;;;;;-5.89;76.27;99739.25;5088914;28;20101;-69
2022/12/15 13:22:34;;;;;;;0.60;0.60;;;;;;;-6.01;76.39;99732.84;5088400;28;20135;-68
2022/12/15 13:25:01;;;;;;;0.70;0.70;;;;;;;-5.99;76.42;99743.88;5087329;28;20021;-70
2022/12/15 13:27:37;;;;;;;0.70;0.70;;;;;;;-5.95;76.62;99738.94;5088664;28;20055;-69
2022/12/15 13:30:14;;;;;;;0.70;0.70;;;;;;;-5.98;76.51;99747.28;5088638;28;20024;-68
2022/12/15 13:32:42;;;;;;;0.70;0.70;;;;;;;-5.98;76.67;99748.16;5088676;28;20012;-67
2022/12/15 13:35:13;;;;;;;0.60;0.60;;;;;;;-5.98;76.64;99752.31;5088240;28;20021;-68
2022/12/15 13:38:06;;;;;;;0.80;0.80;;;;;;;-5.98;76.61;99755.72;5086991;28;20031;-69
2022/12/15 13:40:34;;;;;;;0.60;0.60;;;;;;;-5.95;76.90;99759.19;5088421;28;20562;-68
2022/12/15 13:43:02;;;;;;;0.70;0.70;;;;;;;-5.93;76.71;99757.59;5088465;28;20025;-67
2022/12/15 13:45:33;;;;;;;0.60;0.60;;;;;;;-5.95;76.60;99756.66;5088239;28;20029;-68
2022/12/15 13:47:59;;;;;;;0.70;0.70;;;;;;;-6.03;76.26;99748.69;5088462;28;20447;-68
2022/12/15 13:50:42;;;;;;;0.70;0.70;;;;;;;-6.08;76.74;99752.69;5088288;28;20035;-69
2022/12/15 13:53:17;;;;;;;0.80;0.80;;;;;;;-6.20;76.62;99747.94;5086825;28;20028;-68
2022/12/15 13:56:18;;;;;;;0.80;0.80;;;;;;;-6.20;76.69;99750.44;5088123;28;20016;-68
2022/12/15 13:58:49;;;;;;;0.90;0.90;;;;;;;-6.26;76.78;99759.47;5087216;28;20043;-68
2022/12/15 14:01:27;;;;;;;0.88;0.88;;;;;;;-6.30;76.76;99751.66;5086872;28;20082;-67
2022/12/15 14:03:56;;;;;;;0.70;0.70;;;;;;;-6.37;76.67;99761.47;5086724;28;20028;-68
2022/12/15 14:06:23;;;;;;;0.70;0.70;;;;;;;-6.45;76.60;99759.34;5087667;28;20025;-68
2022/12/15 14:08:49;;;;;;;0.70;0.70;;;;;;;-6.54;76.77;99755.56;5086234;28;20036;-68
2022/12/15 14:11:22;;;;;;;0.70;0.70;;;;;;;-6.50;76.75;99769.22;5087799;28;20021;-68